sensor_id;sensor_type;location;lat;lon;timestamp;P1;durP1;ratioP1;P2;durP2;ratioP2
17193;SDS011;8713;48.388;10.928;2022-11-10T08:17:03;9.88;;;3.50;;
17193;SDS011;8713;48.388;10.928;2022-11-10T08:18:31;4.25;;;2.58;;
17193;SDS011;8713;48.388;10.928;2022-11-10T08:19:59;4.53;;;2.20;;
17193;SDS011;8713;48.388;10.928;2022-11-10T08:21:27;3.63;;;2.40;;
17193;SDS011;8713;48.388;10.928;2022-11-10T08:22:59;3.88;;;2.25;;
17193;SDS011;8713;48.388;10.928;2022-11-10T08:24:29;5.85;;;2.95;;
17193;SDS011;8713;48.388;10.928;2022-11-10T08:25:57;5.18;;;2.17;;
17193;SDS011;8713;48.388;10.928;2022-11-10T08:27:27;5.93;;;2.50;;
17193;SDS011;8713;48.388;10.928;2022-11-10T08:28:55;5.95;;;2.58;;
17193;SDS011;8713;48.388;10.928;2022-11-10T08:30:23;6.15;;;2.15;;
17193;SDS011;8713;48.388;10.928;2022-11-10T08:31:51;5.47;;;2.80;;
17193;SDS011;8713;48.388;10.928;2022-11-10T08:33:20;5.70;;;2.67;;
17193;SDS011;8713;48.388;10.928;2022-11-10T08:34:48;6.25;;;2.38;;
17193;SDS011;8713;48.388;10.928;2022-11-10T08:36:16;7.22;;;2.78;;
17193;SDS011;8713;48.388;10.928;2022-11-10T08:37:44;6.05;;;2.53;;
17193;SDS011;8713;48.388;10.928;2022-11-10T08:39:12;6.20;;;2.25;;
17193;SDS011;8713;48.388;10.928;2022-11-10T08:40:41;4.53;;;2.30;;
17193;SDS011;8713;48.388;10.928;2022-11-10T08:42:10;3.42;;;1.95;;
17193;SDS011;8713;48.388;10.928;2022-11-10T08:43:37;5.78;;;1.98;;
17193;SDS011;8713;48.388;10.928;2022-11-10T08:45:05;6.18;;;2.53;;
17193;SDS011;8713;48.388;10.928;2022-11-10T08:46:34;6.15;;;2.83;;
17193;SDS011;8713;48.388;10.928;2022-11-10T08:48:03;3.60;;;2.15;;
17193;SDS011;8713;48.388;10.928;2022-11-10T08:49:35;5.38;;;2.05;;
17193;SDS011;8713;48.388;10.928;2022-11-10T08:51:04;7.38;;;2.13;;
17193;SDS011;8713;48.388;10.928;2022-11-10T08:52:32;6.05;;;2.25;;
17193;SDS011;8713;48.388;10.928;2022-11-10T08:53:59;7.97;;;2.38;;
17193;SDS011;8713;48.388;10.928;2022-11-10T08:55:27;4.82;;;2.40;;
17193;SDS011;8713;48.388;10.928;2022-11-10T08:56:56;6.93;;;2.50;;
17193;SDS011;8713;48.388;10.928;2022-11-10T08:58:24;5.50;;;1.98;;
17193;SDS011;8713;48.388;10.928;2022-11-10T08:59:52;6.63;;;2.85;;
17193;SDS011;8713;48.388;10.928;2022-11-10T09:01:20;3.65;;;2.00;;
17193;SDS011;8713;48.388;10.928;2022-11-10T09:02:48;5.28;;;2.38;;
17193;SDS011;8713;48.388;10.928;2022-11-10T09:04:16;5.13;;;2.65;;
17193;SDS011;8713;48.388;10.928;2022-11-10T09:05:44;4.40;;;2.03;;
17193;SDS011;8713;48.388;10.928;2022-11-10T09:07:12;4.30;;;1.92;;
17193;SDS011;8713;48.388;10.928;2022-11-10T09:08:40;5.13;;;2.38;;
17193;SDS011;8713;48.388;10.928;2022-11-10T09:10:08;8.93;;;2.08;;
17193;SDS011;8713;48.388;10.928;2022-11-10T09:11:37;5.18;;;2.35;;
17193;SDS011;8713;48.388;10.928;2022-11-10T09:13:05;5.32;;;2.30;;
17193;SDS011;8713;48.388;10.928;2022-11-10T09:14:33;7.63;;;2.25;;
17193;SDS011;8713;48.388;10.928;2022-11-10T09:16:02;5.85;;;2.42;;
17193;SDS011;8713;48.388;10.928;2022-11-10T09:17:31;8.65;;;2.47;;
17193;SDS011;8713;48.388;10.928;2022-11-10T09:18:59;3.58;;;1.75;;
17193;SDS011;8713;48.388;10.928;2022-11-10T09:20:27;6.65;;;2.72;;
17193;SDS011;8713;48.388;10.928;2022-11-10T09:21:57;3.35;;;1.95;;
17193;SDS011;8713;48.388;10.928;2022-11-10T09:23:25;4.20;;;1.90;;
17193;SDS011;8713;48.388;10.928;2022-11-10T09:24:54;5.88;;;2.88;;
17193;SDS011;8713;48.388;10.928;2022-11-10T09:26:22;3.33;;;1.58;;
17193;SDS011;8713;48.388;10.928;2022-11-10T09:27:50;5.97;;;2.13;;
17193;SDS011;8713;48.388;10.928;2022-11-10T09:29:18;5.47;;;2.42;;
17193;SDS011;8713;48.388;10.928;2022-11-10T09:30:49;6.70;;;2.90;;
17193;SDS011;8713;48.388;10.928;2022-11-10T09:32:18;5.22;;;2.33;;
17193;SDS011;8713;48.388;10.928;2022-11-10T09:33:46;6.65;;;2.40;;
17193;SDS011;8713;48.388;10.928;2022-11-10T09:35:14;5.07;;;2.15;;
17193;SDS011;8713;48.388;10.928;2022-11-10T09:36:41;7.15;;;2.60;;
17193;SDS011;8713;48.388;10.928;2022-11-10T09:38:10;5.55;;;2.38;;
17193;SDS011;8713;48.388;10.928;2022-11-10T09:39:38;7.47;;;2.47;;
17193;SDS011;8713;48.388;10.928;2022-11-10T09:41:07;5.07;;;2.25;;
17193;SDS011;8713;48.388;10.928;2022-11-10T09:42:40;3.35;;;2.13;;
17193;SDS011;8713;48.388;10.928;2022-11-10T09:45:50;4.95;;;2.47;;
17193;SDS011;8713;48.388;10.928;2022-11-10T09:47:26;4.00;;;2.38;;
17193;SDS011;8713;48.388;10.928;2022-11-10T09:49:06;4.18;;;2.13;;
17193;SDS011;8713;48.388;10.928;2022-11-10T09:51:03;8.85;;;2.45;;
17193;SDS011;8713;48.388;10.928;2022-11-10T09:52:34;4.60;;;2.13;;
17193;SDS011;8713;48.388;10.928;2022-11-10T09:54:20;4.70;;;2.33;;
17193;SDS011;8713;48.388;10.928;2022-11-10T09:56:02;4.32;;;1.95;;
17193;SDS011;8713;48.388;10.928;2022-11-10T09:57:32;4.88;;;2.05;;
17193;SDS011;8713;48.388;10.928;2022-11-10T09:59:02;3.05;;;1.90;;
17193;SDS011;8713;48.388;10.928;2022-11-10T10:00:34;2.85;;;1.42;;
17193;SDS011;8713;48.388;10.928;2022-11-10T10:02:12;4.15;;;1.83;;
17193;SDS011;8713;48.388;10.928;2022-11-10T10:04:06;6.97;;;2.00;;
17193;SDS011;8713;48.388;10.928;2022-11-10T10:10:59;5.82;;;1.85;;
17193;SDS011;8713;48.388;10.928;2022-11-10T10:15:15;6.22;;;2.40;;
17193;SDS011;8713;48.388;10.928;2022-11-10T10:17:01;4.82;;;2.13;;
17193;SDS011;8713;48.388;10.928;2022-11-10T10:22:19;5.88;;;2.13;;
17193;SDS011;8713;48.388;10.928;2022-11-10T10:24:19;5.43;;;2.55;;
17193;SDS011;8713;48.388;10.928;2022-11-10T10:25:48;6.28;;;1.92;;
17193;SDS011;8713;48.388;10.928;2022-11-10T10:27:20;6.53;;;2.20;;
17193;SDS011;8713;48.388;10.928;2022-11-10T10:28:52;4.60;;;1.80;;
17193;SDS011;8713;48.388;10.928;2022-11-10T10:30:21;5.32;;;2.08;;
17193;SDS011;8713;48.388;10.928;2022-11-10T10:31:50;4.10;;;1.55;;
17193;SDS011;8713;48.388;10.928;2022-11-10T10:33:20;4.43;;;1.42;;
17193;SDS011;8713;48.388;10.928;2022-11-10T10:34:49;5.68;;;1.75;;
17193;SDS011;8713;48.388;10.928;2022-11-10T10:36:28;3.35;;;1.58;;
17193;SDS011;8713;48.388;10.928;2022-11-10T10:37:57;4.10;;;1.50;;
17193;SDS011;8713;48.388;10.928;2022-11-10T10:39:27;3.42;;;1.17;;
17193;SDS011;8713;48.388;10.928;2022-11-10T10:41:00;8.07;;;1.95;;
17193;SDS011;8713;48.388;10.928;2022-11-10T10:42:38;4.80;;;1.70;;
17193;SDS011;8713;48.388;10.928;2022-11-10T10:44:14;3.85;;;2.08;;
17193;SDS011;8713;48.388;10.928;2022-11-10T10:45:44;3.78;;;1.65;;
17193;SDS011;8713;48.388;10.928;2022-11-10T10:47:37;4.47;;;2.03;;
17193;SDS011;8713;48.388;10.928;2022-11-10T10:50:50;4.22;;;2.00;;
17193;SDS011;8713;48.388;10.928;2022-11-10T10:52:17;4.50;;;2.08;;
17193;SDS011;8713;48.388;10.928;2022-11-10T10:53:51;7.35;;;1.83;;
17193;SDS011;8713;48.388;10.928;2022-11-10T10:55:19;8.48;;;2.08;;
17193;SDS011;8713;48.388;10.928;2022-11-10T10:56:47;4.25;;;2.03;;
17193;SDS011;8713;48.388;10.928;2022-11-10T10:58:19;2.58;;;1.73;;
17193;SDS011;8713;48.388;10.928;2022-11-10T11:01:57;4.90;;;1.75;;
17193;SDS011;8713;48.388;10.928;2022-11-10T11:05:13;5.65;;;1.70;;
17193;SDS011;8713;48.388;10.928;2022-11-10T11:06:48;5.20;;;2.10;;
17193;SDS011;8713;48.388;10.928;2022-11-10T11:08:30;5.40;;;2.35;;
17193;SDS011;8713;48.388;10.928;2022-11-10T11:09:59;4.40;;;2.28;;
17193;SDS011;8713;48.388;10.928;2022-11-10T11:11:32;3.85;;;1.60;;
17193;SDS011;8713;48.388;10.928;2022-11-10T11:18:30;1.95;;;0.80;;
17193;SDS011;8713;48.388;10.928;2022-11-10T11:19:59;3.67;;;0.80;;
17193;SDS011;8713;48.388;10.928;2022-11-10T11:21:30;2.47;;;0.80;;
17193;SDS011;8713;48.388;10.928;2022-11-10T11:26:58;4.28;;;1.73;;
17193;SDS011;8713;48.388;10.928;2022-11-10T11:28:48;3.90;;;1.52;;
17193;SDS011;8713;48.388;10.928;2022-11-10T11:30:48;3.38;;;1.75;;
17193;SDS011;8713;48.388;10.928;2022-11-10T11:34:46;3.17;;;1.55;;
17193;SDS011;8713;48.388;10.928;2022-11-10T11:41:12;4.30;;;2.28;;
17193;SDS011;8713;48.388;10.928;2022-11-10T11:47:11;15.90;;;5.60;;
17193;SDS011;8713;48.388;10.928;2022-11-10T11:53:28;4.57;;;2.25;;
17193;SDS011;8713;48.388;10.928;2022-11-10T11:55:22;4.65;;;1.83;;
17193;SDS011;8713;48.388;10.928;2022-11-10T11:57:30;4.40;;;2.38;;
17193;SDS011;8713;48.388;10.928;2022-11-10T11:59:42;4.50;;;1.92;;
17193;SDS011;8713;48.388;10.928;2022-11-10T12:04:01;4.40;;;2.40;;
17193;SDS011;8713;48.388;10.928;2022-11-10T12:12:34;4.22;;;1.70;;
17193;SDS011;8713;48.388;10.928;2022-11-10T12:14:16;5.53;;;2.08;;
17193;SDS011;8713;48.388;10.928;2022-11-10T12:16:10;3.58;;;2.03;;
17193;SDS011;8713;48.388;10.928;2022-11-10T12:17:50;5.88;;;2.08;;
17193;SDS011;8713;48.388;10.928;2022-11-10T12:19:32;3.88;;;1.80;;
17193;SDS011;8713;48.388;10.928;2022-11-10T12:23:17;4.65;;;1.90;;
17193;SDS011;8713;48.388;10.928;2022-11-10T12:27:32;6.82;;;2.38;;
17193;SDS011;8713;48.388;10.928;2022-11-10T12:30:55;6.32;;;2.13;;
17193;SDS011;8713;48.388;10.928;2022-11-10T12:34:17;5.80;;;2.08;;
17193;SDS011;8713;48.388;10.928;2022-11-10T12:36:01;4.00;;;1.85;;
17193;SDS011;8713;48.388;10.928;2022-11-10T12:37:34;3.35;;;2.08;;
17193;SDS011;8713;48.388;10.928;2022-11-10T12:41:02;6.22;;;2.08;;
17193;SDS011;8713;48.388;10.928;2022-11-10T12:42:36;5.25;;;1.73;;
17193;SDS011;8713;48.388;10.928;2022-11-10T12:46:01;2.70;;;1.65;;
17193;SDS011;8713;48.388;10.928;2022-11-10T12:47:44;4.19;;;2.07;;
17193;SDS011;8713;48.388;10.928;2022-11-10T12:49:17;8.52;;;2.15;;
17193;SDS011;8713;48.388;10.928;2022-11-10T12:51:00;4.55;;;1.52;;
17193;SDS011;8713;48.388;10.928;2022-11-10T12:53:03;4.85;;;2.25;;
17193;SDS011;8713;48.388;10.928;2022-11-10T12:54:34;3.95;;;2.35;;
17193;SDS011;8713;48.388;10.928;2022-11-10T12:56:07;4.43;;;2.15;;
17193;SDS011;8713;48.388;10.928;2022-11-10T12:57:42;4.72;;;2.28;;
17193;SDS011;8713;48.388;10.928;2022-11-10T12:59:32;6.78;;;2.65;;
17193;SDS011;8713;48.388;10.928;2022-11-10T13:01:04;3.33;;;1.70;;
17193;SDS011;8713;48.388;10.928;2022-11-10T13:02:40;4.70;;;1.50;;
17193;SDS011;8713;48.388;10.928;2022-11-10T13:04:14;5.22;;;1.80;;
17193;SDS011;8713;48.388;10.928;2022-11-10T13:05:46;5.13;;;2.50;;
17193;SDS011;8713;48.388;10.928;2022-11-10T13:07:23;4.65;;;1.75;;
17193;SDS011;8713;48.388;10.928;2022-11-10T13:08:51;2.63;;;1.15;;
17193;SDS011;8713;48.388;10.928;2022-11-10T13:10:20;5.25;;;1.92;;
17193;SDS011;8713;48.388;10.928;2022-11-10T13:12:03;4.22;;;1.90;;
17193;SDS011;8713;48.388;10.928;2022-11-10T13:13:54;6.75;;;2.17;;
17193;SDS011;8713;48.388;10.928;2022-11-10T13:16:07;4.10;;;1.42;;
17193;SDS011;8713;48.388;10.928;2022-11-10T13:18:55;4.60;;;2.13;;
17193;SDS011;8713;48.388;10.928;2022-11-10T13:22:27;4.63;;;2.00;;
17193;SDS011;8713;48.388;10.928;2022-11-10T13:24:18;5.05;;;2.03;;
17193;SDS011;8713;48.388;10.928;2022-11-10T13:26:03;5.40;;;2.10;;
17193;SDS011;8713;48.388;10.928;2022-11-10T13:27:53;6.35;;;1.75;;
17193;SDS011;8713;48.388;10.928;2022-11-10T13:31:22;6.45;;;1.83;;
17193;SDS011;8713;48.388;10.928;2022-11-10T13:32:55;4.00;;;1.80;;
17193;SDS011;8713;48.388;10.928;2022-11-10T13:34:52;5.55;;;2.15;;
17193;SDS011;8713;48.388;10.928;2022-11-10T13:36:41;5.40;;;1.65;;
17193;SDS011;8713;48.388;10.928;2022-11-10T13:38:18;4.53;;;1.92;;
17193;SDS011;8713;48.388;10.928;2022-11-10T13:41:44;4.70;;;2.10;;
17193;SDS011;8713;48.388;10.928;2022-11-10T13:43:23;4.15;;;1.88;;
17193;SDS011;8713;48.388;10.928;2022-11-10T13:44:53;5.20;;;1.92;;
17193;SDS011;8713;48.388;10.928;2022-11-10T13:46:30;5.00;;;2.28;;
17193;SDS011;8713;48.388;10.928;2022-11-10T13:49:44;5.22;;;2.17;;
17193;SDS011;8713;48.388;10.928;2022-11-10T13:57:11;3.67;;;2.08;;
17193;SDS011;8713;48.388;10.928;2022-11-10T13:59:13;8.65;;;2.42;;
17193;SDS011;8713;48.388;10.928;2022-11-10T14:00:50;4.32;;;2.33;;
17193;SDS011;8713;48.388;10.928;2022-11-10T14:04:35;4.30;;;1.88;;
17193;SDS011;8713;48.388;10.928;2022-11-10T14:06:10;4.30;;;1.65;;
17193;SDS011;8713;48.388;10.928;2022-11-10T14:08:10;5.95;;;2.53;;
17193;SDS011;8713;48.388;10.928;2022-11-10T14:09:45;5.93;;;1.85;;
17193;SDS011;8713;48.388;10.928;2022-11-10T14:11:25;5.32;;;1.83;;
17193;SDS011;8713;48.388;10.928;2022-11-10T14:13:00;3.83;;;1.70;;
17193;SDS011;8713;48.388;10.928;2022-11-10T14:14:42;5.60;;;2.30;;
17193;SDS011;8713;48.388;10.928;2022-11-10T14:16:28;4.35;;;2.22;;
17193;SDS011;8713;48.388;10.928;2022-11-10T14:17:58;7.22;;;1.90;;
17193;SDS011;8713;48.388;10.928;2022-11-10T14:20:00;5.50;;;1.92;;
17193;SDS011;8713;48.388;10.928;2022-11-10T14:21:24;5.03;;;1.92;;
17193;SDS011;8713;48.388;10.928;2022-11-10T14:22:57;5.22;;;1.92;;
17193;SDS011;8713;48.388;10.928;2022-11-10T14:24:50;5.75;;;2.08;;
17193;SDS011;8713;48.388;10.928;2022-11-10T14:26:39;4.53;;;1.70;;
17193;SDS011;8713;48.388;10.928;2022-11-10T14:28:25;6.55;;;2.58;;
17193;SDS011;8713;48.388;10.928;2022-11-10T14:31:42;11.13;;;3.85;;
17193;SDS011;8713;48.388;10.928;2022-11-10T14:33:11;10.38;;;3.20;;
17193;SDS011;8713;48.388;10.928;2022-11-10T14:34:43;18.23;;;5.63;;
17193;SDS011;8713;48.388;10.928;2022-11-10T14:36:16;6.60;;;2.83;;
17193;SDS011;8713;48.388;10.928;2022-11-10T14:37:45;4.20;;;2.03;;
17193;SDS011;8713;48.388;10.928;2022-11-10T14:39:13;4.25;;;1.50;;
17193;SDS011;8713;48.388;10.928;2022-11-10T14:40:42;42.47;;;12.07;;
17193;SDS011;8713;48.388;10.928;2022-11-10T14:42:11;17.10;;;4.93;;
17193;SDS011;8713;48.388;10.928;2022-11-10T14:43:41;7.95;;;2.42;;
17193;SDS011;8713;48.388;10.928;2022-11-10T14:45:14;4.15;;;1.85;;
17193;SDS011;8713;48.388;10.928;2022-11-10T14:46:47;5.63;;;1.92;;
17193;SDS011;8713;48.388;10.928;2022-11-10T14:48:17;8.35;;;1.98;;
17193;SDS011;8713;48.388;10.928;2022-11-10T14:50:01;5.53;;;2.78;;
17193;SDS011;8713;48.388;10.928;2022-11-10T14:51:44;5.07;;;2.53;;
17193;SDS011;8713;48.388;10.928;2022-11-10T14:53:19;5.80;;;2.17;;
17193;SDS011;8713;48.388;10.928;2022-11-10T14:55:04;7.53;;;3.33;;
17193;SDS011;8713;48.388;10.928;2022-11-10T14:56:51;7.65;;;3.13;;
17193;SDS011;8713;48.388;10.928;2022-11-10T14:58:23;15.70;;;7.32;;
17193;SDS011;8713;48.388;10.928;2022-11-10T14:59:54;4.22;;;2.30;;
17193;SDS011;8713;48.388;10.928;2022-11-10T15:03:01;3.35;;;1.50;;
17193;SDS011;8713;48.388;10.928;2022-11-10T15:04:30;3.90;;;1.65;;
17193;SDS011;8713;48.388;10.928;2022-11-10T15:06:00;4.93;;;2.10;;
17193;SDS011;8713;48.388;10.928;2022-11-10T15:07:30;5.70;;;1.63;;
17193;SDS011;8713;48.388;10.928;2022-11-10T15:08:59;6.38;;;2.13;;
17193;SDS011;8713;48.388;10.928;2022-11-10T15:10:56;6.30;;;2.20;;
17193;SDS011;8713;48.388;10.928;2022-11-10T15:12:25;5.45;;;2.08;;
17193;SDS011;8713;48.388;10.928;2022-11-10T15:13:54;2.78;;;1.42;;
17193;SDS011;8713;48.388;10.928;2022-11-10T15:15:22;3.20;;;1.50;;
17193;SDS011;8713;48.388;10.928;2022-11-10T15:17:00;5.25;;;1.65;;
17193;SDS011;8713;48.388;10.928;2022-11-10T15:18:33;5.10;;;1.77;;
17193;SDS011;8713;48.388;10.928;2022-11-10T15:20:01;4.45;;;1.85;;
17193;SDS011;8713;48.388;10.928;2022-11-10T15:21:30;6.85;;;2.50;;
17193;SDS011;8713;48.388;10.928;2022-11-10T15:23:01;7.65;;;3.85;;
17193;SDS011;8713;48.388;10.928;2022-11-10T15:24:31;8.73;;;3.08;;
17193;SDS011;8713;48.388;10.928;2022-11-10T15:25:59;4.70;;;2.45;;
17193;SDS011;8713;48.388;10.928;2022-11-10T15:27:29;4.18;;;2.03;;
17193;SDS011;8713;48.388;10.928;2022-11-10T15:28:58;6.30;;;2.30;;
17193;SDS011;8713;48.388;10.928;2022-11-10T15:30:27;4.68;;;1.98;;
17193;SDS011;8713;48.388;10.928;2022-11-10T15:31:55;5.53;;;2.42;;
17193;SDS011;8713;48.388;10.928;2022-11-10T15:33:25;4.50;;;2.47;;
17193;SDS011;8713;48.388;10.928;2022-11-10T15:35:05;4.50;;;2.17;;
17193;SDS011;8713;48.388;10.928;2022-11-10T15:36:51;6.80;;;2.78;;
17193;SDS011;8713;48.388;10.928;2022-11-10T15:38:59;6.10;;;2.50;;
17193;SDS011;8713;48.388;10.928;2022-11-10T15:41:08;7.00;;;2.60;;
17193;SDS011;8713;48.388;10.928;2022-11-10T15:42:39;7.10;;;2.58;;
17193;SDS011;8713;48.388;10.928;2022-11-10T15:44:20;6.30;;;2.88;;
17193;SDS011;8713;48.388;10.928;2022-11-10T15:45:54;5.00;;;2.63;;
17193;SDS011;8713;48.388;10.928;2022-11-10T15:47:29;4.75;;;2.50;;
17193;SDS011;8713;48.388;10.928;2022-11-10T15:48:57;5.30;;;2.20;;
17193;SDS011;8713;48.388;10.928;2022-11-10T15:50:25;5.22;;;2.35;;
17193;SDS011;8713;48.388;10.928;2022-11-10T15:51:55;5.00;;;2.30;;
17193;SDS011;8713;48.388;10.928;2022-11-10T15:53:32;7.35;;;2.67;;
17193;SDS011;8713;48.388;10.928;2022-11-10T15:55:17;7.82;;;2.65;;
17193;SDS011;8713;48.388;10.928;2022-11-10T15:56:49;8.18;;;3.70;;
17193;SDS011;8713;48.388;10.928;2022-11-10T15:58:21;12.45;;;4.30;;
17193;SDS011;8713;48.388;10.928;2022-11-10T15:59:50;15.90;;;5.97;;
17193;SDS011;8713;48.388;10.928;2022-11-10T16:01:18;15.82;;;6.00;;
17193;SDS011;8713;48.388;10.928;2022-11-10T16:02:47;11.25;;;4.57;;
17193;SDS011;8713;48.388;10.928;2022-11-10T16:04:14;10.00;;;4.43;;
17193;SDS011;8713;48.388;10.928;2022-11-10T16:05:43;13.88;;;4.50;;
17193;SDS011;8713;48.388;10.928;2022-11-10T16:07:11;9.15;;;3.30;;
17193;SDS011;8713;48.388;10.928;2022-11-10T16:08:40;9.32;;;3.63;;
17193;SDS011;8713;48.388;10.928;2022-11-10T16:10:08;9.77;;;3.75;;
17193;SDS011;8713;48.388;10.928;2022-11-10T16:11:37;7.22;;;3.55;;
17193;SDS011;8713;48.388;10.928;2022-11-10T16:13:09;9.82;;;3.70;;
17193;SDS011;8713;48.388;10.928;2022-11-10T16:14:38;9.95;;;3.58;;
17193;SDS011;8713;48.388;10.928;2022-11-10T16:16:13;8.77;;;3.28;;
17193;SDS011;8713;48.388;10.928;2022-11-10T16:17:44;7.25;;;3.10;;
17193;SDS011;8713;48.388;10.928;2022-11-10T16:19:11;7.57;;;3.33;;
17193;SDS011;8713;48.388;10.928;2022-11-10T16:20:39;5.93;;;2.85;;
17193;SDS011;8713;48.388;10.928;2022-11-10T16:22:08;6.65;;;2.95;;
17193;SDS011;8713;48.388;10.928;2022-11-10T16:23:37;9.25;;;3.03;;
17193;SDS011;8713;48.388;10.928;2022-11-10T16:25:05;6.97;;;2.75;;
17193;SDS011;8713;48.388;10.928;2022-11-10T16:26:34;5.63;;;2.47;;
17193;SDS011;8713;48.388;10.928;2022-11-10T16:28:02;5.50;;;2.58;;
17193;SDS011;8713;48.388;10.928;2022-11-10T16:29:32;5.05;;;2.95;;
17193;SDS011;8713;48.388;10.928;2022-11-10T16:31:00;6.00;;;3.08;;
17193;SDS011;8713;48.388;10.928;2022-11-10T16:32:29;5.72;;;3.13;;
17193;SDS011;8713;48.388;10.928;2022-11-10T16:33:56;6.03;;;2.55;;
17193;SDS011;8713;48.388;10.928;2022-11-10T16:35:25;7.95;;;3.00;;
17193;SDS011;8713;48.388;10.928;2022-11-10T16:36:53;4.85;;;2.85;;
17193;SDS011;8713;48.388;10.928;2022-11-10T16:38:23;7.50;;;3.05;;
17193;SDS011;8713;48.388;10.928;2022-11-10T16:39:53;7.32;;;2.50;;
17193;SDS011;8713;48.388;10.928;2022-11-10T16:41:21;4.55;;;2.33;;
17193;SDS011;8713;48.388;10.928;2022-11-10T16:42:50;7.28;;;2.78;;
17193;SDS011;8713;48.388;10.928;2022-11-10T16:44:18;6.68;;;3.20;;
17193;SDS011;8713;48.388;10.928;2022-11-10T16:45:50;8.25;;;3.35;;
17193;SDS011;8713;48.388;10.928;2022-11-10T16:47:21;8.88;;;4.25;;
17193;SDS011;8713;48.388;10.928;2022-11-10T16:48:50;7.03;;;3.45;;
17193;SDS011;8713;48.388;10.928;2022-11-10T16:50:25;5.05;;;3.38;;
17193;SDS011;8713;48.388;10.928;2022-11-10T16:52:03;7.10;;;2.67;;
17193;SDS011;8713;48.388;10.928;2022-11-10T16:53:38;7.55;;;3.17;;
17193;SDS011;8713;48.388;10.928;2022-11-10T16:55:08;9.60;;;3.00;;
17193;SDS011;8713;48.388;10.928;2022-11-10T16:56:38;7.00;;;3.05;;
17193;SDS011;8713;48.388;10.928;2022-11-10T16:58:06;6.47;;;3.22;;
17193;SDS011;8713;48.388;10.928;2022-11-10T16:59:34;6.20;;;3.47;;
17193;SDS011;8713;48.388;10.928;2022-11-10T17:01:02;6.47;;;3.88;;
17193;SDS011;8713;48.388;10.928;2022-11-10T17:02:32;6.05;;;3.70;;
17193;SDS011;8713;48.388;10.928;2022-11-10T17:04:06;6.43;;;3.72;;
17193;SDS011;8713;48.388;10.928;2022-11-10T17:05:35;8.57;;;4.60;;
17193;SDS011;8713;48.388;10.928;2022-11-10T17:07:07;8.70;;;4.18;;
17193;SDS011;8713;48.388;10.928;2022-11-10T17:08:40;4.40;;;2.97;;
17193;SDS011;8713;48.388;10.928;2022-11-10T17:10:15;6.47;;;3.35;;
17193;SDS011;8713;48.388;10.928;2022-11-10T17:11:45;5.75;;;3.22;;
17193;SDS011;8713;48.388;10.928;2022-11-10T17:13:13;5.88;;;3.28;;
17193;SDS011;8713;48.388;10.928;2022-11-10T17:14:41;6.00;;;3.05;;
17193;SDS011;8713;48.388;10.928;2022-11-10T17:16:13;7.50;;;3.45;;
17193;SDS011;8713;48.388;10.928;2022-11-10T17:17:57;6.60;;;3.17;;
17193;SDS011;8713;48.388;10.928;2022-11-10T17:19:27;6.15;;;3.70;;
17193;SDS011;8713;48.388;10.928;2022-11-10T17:20:55;6.90;;;3.95;;
17193;SDS011;8713;48.388;10.928;2022-11-10T17:22:23;7.65;;;3.70;;
17193;SDS011;8713;48.388;10.928;2022-11-10T17:23:52;8.88;;;4.32;;
17193;SDS011;8713;48.388;10.928;2022-11-10T17:25:22;6.07;;;3.70;;
17193;SDS011;8713;48.388;10.928;2022-11-10T17:26:53;6.47;;;3.60;;
17193;SDS011;8713;48.388;10.928;2022-11-10T17:28:22;6.03;;;3.80;;
17193;SDS011;8713;48.388;10.928;2022-11-10T17:29:50;7.25;;;4.10;;
17193;SDS011;8713;48.388;10.928;2022-11-10T17:31:18;6.72;;;3.90;;
17193;SDS011;8713;48.388;10.928;2022-11-10T17:32:46;7.35;;;4.93;;
17193;SDS011;8713;48.388;10.928;2022-11-10T17:34:15;8.30;;;4.95;;
17193;SDS011;8713;48.388;10.928;2022-11-10T17:35:46;7.72;;;4.15;;
17193;SDS011;8713;48.388;10.928;2022-11-10T17:37:17;9.13;;;4.45;;
17193;SDS011;8713;48.388;10.928;2022-11-10T17:38:45;7.35;;;4.10;;
17193;SDS011;8713;48.388;10.928;2022-11-10T17:41:49;6.28;;;4.40;;
17193;SDS011;8713;48.388;10.928;2022-11-10T17:43:18;7.45;;;3.85;;
17193;SDS011;8713;48.388;10.928;2022-11-10T17:44:46;7.53;;;3.72;;
17193;SDS011;8713;48.388;10.928;2022-11-10T17:46:14;5.22;;;3.45;;
17193;SDS011;8713;48.388;10.928;2022-11-10T17:47:42;9.45;;;4.07;;
17193;SDS011;8713;48.388;10.928;2022-11-10T17:49:10;8.82;;;4.07;;
17193;SDS011;8713;48.388;10.928;2022-11-10T17:50:39;7.85;;;4.10;;
17193;SDS011;8713;48.388;10.928;2022-11-10T17:52:10;7.53;;;3.35;;
17193;SDS011;8713;48.388;10.928;2022-11-10T17:53:44;7.78;;;3.70;;
17193;SDS011;8713;48.388;10.928;2022-11-10T17:55:22;6.10;;;3.40;;
17193;SDS011;8713;48.388;10.928;2022-11-10T17:56:52;8.15;;;3.50;;
17193;SDS011;8713;48.388;10.928;2022-11-10T17:58:20;6.65;;;2.97;;
17193;SDS011;8713;48.388;10.928;2022-11-10T17:59:49;6.68;;;3.45;;
17193;SDS011;8713;48.388;10.928;2022-11-10T18:01:18;9.93;;;3.38;;
17193;SDS011;8713;48.388;10.928;2022-11-10T18:02:46;7.47;;;3.53;;
17193;SDS011;8713;48.388;10.928;2022-11-10T18:04:14;10.25;;;3.88;;
17193;SDS011;8713;48.388;10.928;2022-11-10T18:05:43;9.40;;;5.30;;
17193;SDS011;8713;48.388;10.928;2022-11-10T18:07:11;14.20;;;7.55;;
17193;SDS011;8713;48.388;10.928;2022-11-10T18:08:39;10.80;;;6.32;;
17193;SDS011;8713;48.388;10.928;2022-11-10T18:10:09;7.50;;;3.92;;
17193;SDS011;8713;48.388;10.928;2022-11-10T18:11:39;8.57;;;3.60;;
17193;SDS011;8713;48.388;10.928;2022-11-10T18:13:07;6.18;;;3.92;;
17193;SDS011;8713;48.388;10.928;2022-11-10T18:14:36;9.05;;;3.85;;
17193;SDS011;8713;48.388;10.928;2022-11-10T18:16:05;6.70;;;3.90;;
17193;SDS011;8713;48.388;10.928;2022-11-10T18:17:35;9.40;;;4.38;;
17193;SDS011;8713;48.388;10.928;2022-11-10T18:19:02;10.15;;;5.38;;
17193;SDS011;8713;48.388;10.928;2022-11-10T18:20:32;13.38;;;6.68;;
17193;SDS011;8713;48.388;10.928;2022-11-10T18:22:00;12.27;;;6.25;;
17193;SDS011;8713;48.388;10.928;2022-11-10T18:23:28;14.45;;;6.47;;
17193;SDS011;8713;48.388;10.928;2022-11-10T18:24:57;13.45;;;7.22;;
17193;SDS011;8713;48.388;10.928;2022-11-10T18:26:25;18.38;;;7.20;;
17193;SDS011;8713;48.388;10.928;2022-11-10T18:27:53;11.27;;;5.88;;
17193;SDS011;8713;48.388;10.928;2022-11-10T18:29:21;9.50;;;5.25;;
17193;SDS011;8713;48.388;10.928;2022-11-10T18:30:49;9.73;;;5.13;;
17193;SDS011;8713;48.388;10.928;2022-11-10T18:32:17;8.07;;;4.80;;
17193;SDS011;8713;48.388;10.928;2022-11-10T18:33:45;7.93;;;5.00;;
17193;SDS011;8713;48.388;10.928;2022-11-10T18:35:13;10.65;;;5.28;;
17193;SDS011;8713;48.388;10.928;2022-11-10T18:36:41;10.60;;;5.30;;
17193;SDS011;8713;48.388;10.928;2022-11-10T18:38:10;9.48;;;5.57;;
17193;SDS011;8713;48.388;10.928;2022-11-10T18:39:39;9.93;;;5.60;;
17193;SDS011;8713;48.388;10.928;2022-11-10T18:41:08;10.48;;;5.68;;
17193;SDS011;8713;48.388;10.928;2022-11-10T18:42:55;10.35;;;6.35;;
17193;SDS011;8713;48.388;10.928;2022-11-10T18:44:24;11.43;;;6.85;;
17193;SDS011;8713;48.388;10.928;2022-11-10T18:45:53;10.65;;;6.93;;
17193;SDS011;8713;48.388;10.928;2022-11-10T18:47:20;11.05;;;6.57;;
17193;SDS011;8713;48.388;10.928;2022-11-10T18:48:49;10.13;;;6.50;;
17193;SDS011;8713;48.388;10.928;2022-11-10T18:50:17;11.20;;;6.50;;
17193;SDS011;8713;48.388;10.928;2022-11-10T18:51:46;13.82;;;6.72;;
17193;SDS011;8713;48.388;10.928;2022-11-10T18:53:14;15.50;;;7.50;;
17193;SDS011;8713;48.388;10.928;2022-11-10T18:54:42;11.27;;;6.03;;
17193;SDS011;8713;48.388;10.928;2022-11-10T18:56:10;12.98;;;6.20;;
17193;SDS011;8713;48.388;10.928;2022-11-10T18:57:38;11.82;;;6.68;;
17193;SDS011;8713;48.388;10.928;2022-11-10T18:59:06;10.55;;;6.53;;
17193;SDS011;8713;48.388;10.928;2022-11-10T19:00:34;12.85;;;6.70;;
17193;SDS011;8713;48.388;10.928;2022-11-10T19:02:02;15.07;;;7.45;;
17193;SDS011;8713;48.388;10.928;2022-11-10T19:03:31;12.48;;;6.43;;
17193;SDS011;8713;48.388;10.928;2022-11-10T19:05:01;13.68;;;8.00;;